createdAt,value
2023-04-27T00:02:00.176Z,101102.47
2023-04-27T00:04:28.225Z,101102.56
2023-04-27T00:06:56.248Z,101099.94
2023-04-27T00:09:25.731Z,101102.78
2023-04-27T00:11:53.451Z,101104.69
2023-04-27T00:14:21.562Z,101099.03
2023-04-27T00:16:49.485Z,101108.84
2023-04-27T00:19:17.330Z,101088.09
2023-04-27T00:21:45.084Z,101104.09
2023-04-27T00:24:12.866Z,101112.09
2023-04-27T00:26:42.151Z,101112.34
2023-04-27T00:29:09.851Z,101096.31
2023-04-27T00:31:37.658Z,101118.03
2023-04-27T00:34:05.811Z,101119.19
2023-04-27T00:36:34.827Z,101114.88
2023-04-27T00:39:04.247Z,101117.84
2023-04-27T00:41:33.151Z,101101.09
2023-04-27T00:44:03.118Z,101111.75
2023-04-27T00:46:31.494Z,101116.38
2023-04-27T00:48:59.871Z,101116.78
2023-04-27T00:51:30.087Z,101115.94
2023-04-27T00:53:58.818Z,101114.25
2023-04-27T00:56:26.570Z,101116.41
2023-04-27T00:58:55.911Z,101116.41
2023-04-27T01:01:25.120Z,101109.56
2023-04-27T01:03:53.117Z,101109.81
2023-04-27T01:06:20.976Z,101112.78
2023-04-27T01:08:48.736Z,101111.28
2023-04-27T01:11:16.647Z,101104.44
2023-04-27T01:13:44.433Z,101114.97
2023-04-27T01:16:12.201Z,101071.31
2023-04-27T01:18:41.641Z,101112.25
2023-04-27T01:21:09.404Z,101105.75
2023-04-27T01:23:38.925Z,101117.00
2023-04-27T01:26:06.724Z,101113.19
2023-04-27T01:28:34.572Z,101110.38
2023-04-27T01:31:02.339Z,101110.06
2023-04-27T01:33:30.120Z,101106.47
2023-04-27T01:35:57.931Z,101105.00
2023-04-27T01:38:28.533Z,101111.53
2023-04-27T01:41:02.103Z,101113.78
2023-04-27T01:43:30.592Z,101112.50
2023-04-27T01:45:58.303Z,101112.09
2023-04-27T01:48:26.049Z,101103.13
2023-04-27T01:50:53.953Z,101109.25
2023-04-27T01:53:21.916Z,101123.16
2023-04-27T01:55:49.709Z,101114.72
2023-04-27T01:58:18.817Z,101121.06
2023-04-27T02:00:46.732Z,101128.53
2023-04-27T02:03:14.605Z,101124.31
2023-04-27T02:05:42.859Z,101130.31
2023-04-27T02:08:10.725Z,101119.44
2023-04-27T02:10:39.607Z,101129.78
2023-04-27T02:13:07.490Z,101132.59
2023-04-27T02:15:36.628Z,101129.47
2023-04-27T02:18:05.039Z,101119.97
2023-04-27T02:20:33.366Z,101132.41
2023-04-27T02:23:02.176Z,101127.44
2023-04-27T02:25:30.476Z,101117.84
2023-04-27T02:27:58.243Z,101095.53
2023-04-27T02:30:26.433Z,101122.06
2023-04-27T02:33:00.889Z,101125.63
2023-04-27T02:35:28.904Z,101122.69
2023-04-27T02:37:56.712Z,101117.44
2023-04-27T02:40:25.311Z,101122.06
2023-04-27T02:42:53.146Z,101118.78
2023-04-27T02:45:20.917Z,101120.56
2023-04-27T02:47:48.968Z,101120.66
2023-04-27T02:50:18.551Z,101116.56
2023-04-27T02:52:46.283Z,101115.94
2023-04-27T02:55:14.510Z,101097.91
2023-04-27T02:57:42.429Z,101096.97
2023-04-27T03:00:11.665Z,101100.16
2023-04-27T03:02:39.597Z,101103.63
2023-04-27T03:05:08.464Z,101099.50
2023-04-27T03:07:37.599Z,101101.47
2023-04-27T03:10:06.038Z,101075.47
2023-04-27T03:12:33.781Z,101099.28
2023-04-27T03:15:01.693Z,101072.09
2023-04-27T03:17:29.685Z,101102.09
2023-04-27T03:19:57.469Z,101093.38
2023-04-27T03:22:25.339Z,101104.72
2023-04-27T03:24:54.436Z,101094.97
2023-04-27T03:27:22.227Z,101092.38
2023-04-27T03:29:52.767Z,101102.38
2023-04-27T03:32:20.918Z,101104.91
2023-04-27T03:34:48.692Z,101097.97
2023-04-27T03:37:17.249Z,101091.66
2023-04-27T03:39:45.162Z,101101.53
2023-04-27T03:42:14.925Z,101101.78
2023-04-27T03:44:42.698Z,101096.91
2023-04-27T03:47:10.513Z,101108.25
2023-04-27T03:49:40.111Z,101106.66
2023-04-27T03:52:08.948Z,101097.09
2023-04-27T03:54:37.320Z,101104.22
2023-04-27T03:57:05.322Z,101102.63
2023-04-27T03:59:34.486Z,101098.84
2023-04-27T04:02:03.925Z,101101.38
2023-04-27T04:04:32.278Z,101113.66
2023-04-27T04:07:00.196Z,101110.09
2023-04-27T04:09:28.087Z,101115.59
2023-04-27T04:11:56.078Z,101107.81
2023-04-27T04:14:23.878Z,101121.31
2023-04-27T04:16:53.999Z,101125.44
2023-04-27T04:19:22.355Z,101131.41
2023-04-27T04:21:50.699Z,101140.25
2023-04-27T04:24:19.940Z,101131.53
2023-04-27T04:26:48.633Z,101126.75
2023-04-27T04:29:16.805Z,101139.16
2023-04-27T04:31:45.136Z,101138.97
2023-04-27T04:34:14.522Z,101141.78
2023-04-27T04:36:42.541Z,101138.72
2023-04-27T04:39:12.645Z,101093.59
2023-04-27T04:41:40.681Z,101120.50
2023-04-27T04:44:10.929Z,101141.03
2023-04-27T04:46:38.889Z,101143.28
2023-04-27T04:49:07.402Z,100972.03
2023-04-27T04:51:36.621Z,101143.09
2023-04-27T04:54:04.656Z,101141.94
2023-04-27T04:56:32.436Z,101145.50
2023-04-27T04:59:02.375Z,101148.69
2023-04-27T05:01:32.474Z,101139.66
2023-04-27T05:04:00.530Z,101143.22
2023-04-27T05:06:28.346Z,101148.50
2023-04-27T05:08:57.419Z,101152.25
2023-04-27T05:11:25.176Z,101128.25
2023-04-27T05:13:52.988Z,101155.88
2023-04-27T05:16:21.142Z,101158.41
2023-04-27T05:18:49.083Z,101172.09
2023-04-27T05:21:17.634Z,101138.34
2023-04-27T05:23:45.372Z,101167.88
2023-04-27T05:26:15.190Z,101159.47
2023-04-27T05:28:43.270Z,101161.38
2023-04-27T05:31:11.210Z,101157.25
2023-04-27T05:33:39.003Z,101156.78
2023-04-27T05:36:07.180Z,101161.91
2023-04-27T05:38:39.953Z,101166.97
2023-04-27T05:41:07.894Z,101167.72
2023-04-27T05:43:38.608Z,101168.56
2023-04-27T05:46:06.677Z,101173.72
2023-04-27T05:48:34.991Z,101184.91
2023-04-27T05:51:03.890Z,101188.38
2023-04-27T05:53:31.807Z,101181.00
2023-04-27T05:56:01.003Z,101178.91
2023-04-27T05:58:29.046Z,101180.59
2023-04-27T06:00:58.246Z,101190.00
2023-04-27T06:03:26.509Z,101171.78
2023-04-27T06:05:59.071Z,101188.63
2023-04-27T06:08:27.087Z,101185.78
2023-04-27T06:10:55.378Z,101185.91
2023-04-27T06:13:23.387Z,101193.28
2023-04-27T06:15:51.254Z,101194.88
2023-04-27T06:18:20.438Z,101173.06
2023-04-27T06:20:48.313Z,101196.25
2023-04-27T06:23:16.092Z,101203.19
2023-04-27T06:25:45.364Z,101195.00
2023-04-27T06:28:13.047Z,101198.38
2023-04-27T06:30:40.821Z,101194.78
2023-04-27T06:33:08.537Z,101195.41
2023-04-27T06:35:37.684Z,101199.63
2023-04-27T06:38:07.564Z,101194.91
2023-04-27T06:40:37.023Z,101193.97
2023-04-27T06:43:05.234Z,101197.94
2023-04-27T06:45:33.016Z,101164.03
2023-04-27T06:48:00.997Z,101197.44
2023-04-27T06:50:29.270Z,101190.38
2023-04-27T06:52:58.482Z,101175.63
2023-04-27T06:55:26.267Z,101189.53
2023-04-27T06:57:53.949Z,101195.94
2023-04-27T07:00:22.987Z,101167.81
2023-04-27T07:02:51.798Z,101192.91
2023-04-27T07:05:19.857Z,101190.91
2023-04-27T07:07:47.658Z,101198.34
2023-04-27T07:10:16.802Z,101193.72
2023-04-27T07:12:44.678Z,101187.41
2023-04-27T07:15:12.478Z,101193.31
2023-04-27T07:17:40.292Z,101194.53
2023-04-27T07:20:09.487Z,101194.34
2023-04-27T07:22:37.458Z,101194.69
2023-04-27T07:25:06.024Z,101200.47
2023-04-27T07:27:35.644Z,101194.97
2023-04-27T07:30:03.467Z,101192.88
2023-04-27T07:32:31.326Z,101196.94
2023-04-27T07:34:59.573Z,101174.81
2023-04-27T07:37:27.423Z,101199.88
2023-04-27T07:39:55.132Z,101198.94
2023-04-27T07:42:23.593Z,101199.44
2023-04-27T07:44:54.083Z,101191.03
2023-04-27T07:47:22.019Z,101194.41
2023-04-27T07:49:49.764Z,101200.28
2023-04-27T07:52:17.518Z,101195.25
2023-04-27T07:54:45.494Z,101190.88
2023-04-27T07:57:13.256Z,101197.81
2023-04-27T07:59:41.186Z,101197.16
2023-04-27T08:02:18.449Z,101196.72
2023-04-27T08:04:48.042Z,101195.25
2023-04-27T08:07:16.474Z,101191.22
2023-04-27T08:09:44.328Z,101193.50
2023-04-27T08:12:12.060Z,101193.16
2023-04-27T08:14:39.801Z,101183.34
2023-04-27T08:17:07.693Z,101190.78
2023-04-27T08:19:36.946Z,101173.53
2023-04-27T08:22:04.700Z,101179.56
2023-04-27T08:24:32.474Z,101174.78
2023-04-27T08:27:00.235Z,101174.66
2023-04-27T08:29:29.054Z,101175.25
2023-04-27T08:32:01.233Z,101173.13
2023-04-27T08:34:29.364Z,101168.34
2023-04-27T08:36:58.652Z,101150.19
2023-04-27T08:39:26.398Z,101150.72
2023-04-27T08:41:54.450Z,101171.75
2023-04-27T08:44:22.322Z,101172.69
2023-04-27T08:46:50.793Z,101165.13
2023-04-27T08:49:19.125Z,101166.47
2023-04-27T08:51:47.008Z,101155.63
2023-04-27T08:54:16.236Z,101166.47
2023-04-27T08:56:43.976Z,101161.28
2023-04-27T08:59:17.259Z,101164.06
2023-04-27T09:01:46.787Z,101174.63
2023-04-27T09:04:14.967Z,101165.75
2023-04-27T09:06:43.163Z,101162.25
2023-04-27T09:09:11.361Z,101166.84
2023-04-27T09:11:40.847Z,101165.50
2023-04-27T09:14:17.689Z,101140.88
2023-04-27T09:16:45.733Z,101147.03
2023-04-27T09:19:13.857Z,101154.50
2023-04-27T09:21:43.086Z,101161.72
2023-04-27T09:24:12.313Z,101153.09
2023-04-27T09:26:42.539Z,101162.19
2023-04-27T09:29:10.446Z,101167.97
2023-04-27T09:31:38.241Z,101164.13
2023-04-27T09:34:06.274Z,101166.50
2023-04-27T09:36:34.157Z,101162.56
2023-04-27T09:39:04.607Z,101163.16
2023-04-27T09:41:33.308Z,101142.47
2023-04-27T09:44:03.346Z,101158.06
2023-04-27T09:46:34.509Z,101150.13
2023-04-27T09:49:05.539Z,101147.47
2023-04-27T09:51:34.843Z,101145.31
2023-04-27T09:54:05.111Z,101139.28
2023-04-27T09:56:43.394Z,101142.47
2023-04-27T09:59:32.354Z,101149.59
2023-04-27T10:02:09.985Z,101137.09
2023-04-27T10:05:03.969Z,101146.47
2023-04-27T10:07:33.298Z,101120.03
2023-04-27T10:10:04.269Z,101141.03
2023-04-27T10:12:36.221Z,101133.75
2023-04-27T10:15:15.348Z,101126.97
2023-04-27T10:17:49.635Z,101104.56
2023-04-27T10:20:17.747Z,101120.13
2023-04-27T10:22:47.731Z,101123.97
2023-04-27T10:25:18.834Z,101126.13
2023-04-27T10:27:51.913Z,101127.69
2023-04-27T10:30:22.255Z,101135.53
2023-04-27T10:32:54.149Z,101128.59
2023-04-27T10:35:23.148Z,101116.75
2023-04-27T10:37:52.198Z,101117.53
2023-04-27T10:40:19.925Z,101114.00
2023-04-27T10:42:49.516Z,101115.25
2023-04-27T10:45:31.430Z,101106.25
2023-04-27T10:48:01.584Z,101091.56
2023-04-27T10:50:30.114Z,101107.59
2023-04-27T10:53:02.539Z,101107.47
2023-04-27T10:55:31.430Z,101095.47
2023-04-27T10:58:00.229Z,101101.09
2023-04-27T11:00:31.542Z,101101.88
2023-04-27T11:03:12.354Z,101078.50
2023-04-27T11:05:40.218Z,101097.38
2023-04-27T11:08:09.070Z,101097.09
2023-04-27T11:10:41.149Z,101090.25
2023-04-27T11:13:11.335Z,101076.09
2023-04-27T11:15:51.709Z,101085.78
2023-04-27T11:18:21.611Z,101095.66
2023-04-27T11:20:52.341Z,101099.75
2023-04-27T11:23:27.351Z,101097.44
2023-04-27T11:25:55.855Z,101085.84
2023-04-27T11:28:24.330Z,101076.72
2023-04-27T11:31:04.407Z,101075.50
2023-04-27T11:33:32.552Z,101084.00
2023-04-27T11:36:01.093Z,101085.31
2023-04-27T11:38:34.688Z,101088.00
2023-04-27T11:41:06.121Z,101090.81
2023-04-27T11:43:37.671Z,101081.56
2023-04-27T11:46:08.208Z,101057.84
2023-04-27T11:48:37.552Z,101086.66
2023-04-27T11:51:06.017Z,101082.47
2023-04-27T11:53:36.512Z,101076.34
2023-04-27T11:56:06.236Z,101079.47
2023-04-27T11:58:35.223Z,101071.84
2023-04-27T12:01:03.939Z,101056.66
2023-04-27T12:03:33.339Z,101051.22
2023-04-27T12:06:16.194Z,101051.25
2023-04-27T12:08:49.283Z,101054.75
2023-04-27T12:11:17.068Z,101065.25
2023-04-27T12:13:44.888Z,101029.78
2023-04-27T12:16:13.375Z,101063.84
2023-04-27T12:18:42.575Z,101054.06
2023-04-27T12:21:10.420Z,101055.69
2023-04-27T12:23:38.179Z,101056.84
2023-04-27T12:26:06.217Z,101046.97
2023-04-27T12:28:33.975Z,101040.78
2023-04-27T12:31:04.239Z,101042.91
2023-04-27T12:33:32.219Z,101028.25
2023-04-27T12:36:01.327Z,101036.94
2023-04-27T12:38:29.282Z,101030.63
2023-04-27T12:40:57.142Z,101036.63
2023-04-27T12:43:24.879Z,101017.88
2023-04-27T12:45:52.723Z,101039.97
2023-04-27T12:48:20.734Z,101040.31
2023-04-27T12:50:48.559Z,101035.63
2023-04-27T12:53:17.684Z,101043.56
2023-04-27T12:55:46.923Z,101041.97
2023-04-27T12:58:14.718Z,101034.53
2023-04-27T13:00:42.788Z,101041.34
2023-04-27T13:03:10.748Z,101032.22
2023-04-27T13:05:38.547Z,101026.41
2023-04-27T13:08:06.595Z,101036.25
2023-04-27T13:10:36.552Z,101018.13
2023-04-27T13:13:04.624Z,101035.44
2023-04-27T13:15:32.394Z,101042.22
2023-04-27T13:18:01.785Z,101035.66
2023-04-27T13:20:29.602Z,101031.16
2023-04-27T13:22:57.386Z,101036.44
2023-04-27T13:25:25.098Z,101039.22
2023-04-27T13:27:54.252Z,101043.81
2023-04-27T13:30:22.194Z,101044.00
2023-04-27T13:32:49.943Z,101043.59
2023-04-27T13:35:17.780Z,101041.69
2023-04-27T13:37:45.687Z,101005.38
2023-04-27T13:40:13.852Z,101034.16
2023-04-27T13:42:41.703Z,101023.41
2023-04-27T13:45:11.676Z,101030.81
2023-04-27T13:47:40.538Z,101013.41
2023-04-27T13:50:10.073Z,101019.91
2023-04-27T13:52:39.163Z,101019.22
2023-04-27T13:55:09.188Z,101018.84
2023-04-27T13:57:37.258Z,101024.06
2023-04-27T14:00:07.877Z,101012.38
2023-04-27T14:02:37.586Z,101010.59
2023-04-27T14:05:06.446Z,101003.56
2023-04-27T14:07:35.632Z,101004.31
2023-04-27T14:10:03.826Z,101002.75
2023-04-27T14:12:31.980Z,100997.63
2023-04-27T14:14:59.731Z,100976.41
2023-04-27T14:17:27.651Z,100985.00
2023-04-27T14:19:56.708Z,100982.56
2023-04-27T14:22:24.553Z,100973.38
2023-04-27T14:24:52.366Z,100974.03
2023-04-27T14:27:20.413Z,100979.41
2023-04-27T14:29:48.121Z,100964.25
2023-04-27T14:32:16.057Z,100967.78
2023-04-27T14:34:43.841Z,100969.94
2023-04-27T14:37:13.004Z,100968.78
2023-04-27T14:39:42.285Z,100960.97
2023-04-27T14:42:11.514Z,100950.75
2023-04-27T14:44:39.173Z,100950.75
2023-04-27T14:47:07.038Z,100942.22
2023-04-27T14:49:34.665Z,100937.72
2023-04-27T14:52:04.712Z,100931.75
2023-04-27T14:54:33.909Z,100928.41
2023-04-27T14:57:02.036Z,100934.41
2023-04-27T14:59:30.052Z,100917.72
2023-04-27T15:01:57.821Z,100921.06
2023-04-27T15:04:25.676Z,100913.19
2023-04-27T15:06:54.918Z,100922.03
2023-04-27T15:09:22.728Z,100914.38
2023-04-27T15:11:51.849Z,100920.56
2023-04-27T15:14:19.616Z,100909.38
2023-04-27T15:16:47.376Z,100911.72
2023-04-27T15:19:15.426Z,100906.00
2023-04-27T15:21:43.283Z,100906.38
2023-04-27T15:24:14.224Z,100901.19
2023-04-27T15:26:42.472Z,100914.69
2023-04-27T15:29:13.697Z,100908.88
2023-04-27T15:31:41.768Z,100909.06
2023-04-27T15:34:09.505Z,100895.69
2023-04-27T15:36:37.337Z,100884.66
2023-04-27T15:39:06.330Z,100895.00
2023-04-27T15:41:34.946Z,100880.00
2023-04-27T15:44:02.709Z,100868.50
2023-04-27T15:46:34.128Z,100877.84
2023-04-27T15:49:04.010Z,100878.19
2023-04-27T15:51:32.328Z,100872.84
2023-04-27T15:54:00.268Z,100865.81
2023-04-27T15:56:30.500Z,100874.66
2023-04-27T15:58:58.725Z,100848.97
2023-04-27T16:01:26.592Z,100852.81
2023-04-27T16:03:56.560Z,100849.97
2023-04-27T16:06:30.353Z,100865.00
2023-04-27T16:08:58.120Z,100870.81
2023-04-27T16:11:25.800Z,100863.09
2023-04-27T16:13:53.521Z,100857.91
2023-04-27T16:16:21.346Z,100850.06
2023-04-27T16:18:49.107Z,100852.25
2023-04-27T16:21:18.151Z,100852.56
2023-04-27T16:23:45.820Z,100850.22
2023-04-27T16:26:13.549Z,100842.53
2023-04-27T16:28:41.402Z,100833.69
2023-04-27T16:31:09.408Z,100843.53
2023-04-27T16:33:37.224Z,100840.34
2023-04-27T16:36:05.500Z,100826.69
2023-04-27T16:38:35.173Z,100826.53
2023-04-27T16:41:06.838Z,100832.19
2023-04-27T16:43:34.710Z,100825.03
2023-04-27T16:46:02.556Z,100824.69
2023-04-27T16:48:30.564Z,100820.84
2023-04-27T16:50:58.618Z,100821.16
2023-04-27T16:53:27.081Z,100818.50
2023-04-27T16:55:56.172Z,100814.28
2023-04-27T16:58:24.193Z,100799.94
2023-04-27T17:00:51.928Z,100802.59
2023-04-27T17:03:21.537Z,100802.44
2023-04-27T17:05:49.355Z,100798.44
2023-04-27T17:08:17.082Z,100797.59
2023-04-27T17:10:45.507Z,100801.41
2023-04-27T17:13:16.441Z,100800.06
2023-04-27T17:15:44.250Z,100803.00
2023-04-27T17:18:12.061Z,100792.31
2023-04-27T17:20:42.158Z,100789.44
2023-04-27T17:23:10.075Z,100786.44
2023-04-27T17:25:37.842Z,100787.91
2023-04-27T17:28:05.886Z,100775.34
2023-04-27T17:30:34.925Z,100777.56
2023-04-27T17:33:03.519Z,100772.53
2023-04-27T17:35:31.646Z,100763.03
2023-04-27T17:37:59.382Z,100766.50
2023-04-27T17:40:27.273Z,100765.97
2023-04-27T17:42:56.465Z,100765.78
2023-04-27T17:45:26.347Z,100762.31
2023-04-27T17:47:55.731Z,100761.72
2023-04-27T17:50:23.516Z,100761.22
2023-04-27T17:52:51.483Z,100768.22
2023-04-27T17:55:19.393Z,100773.31
2023-04-27T17:57:47.250Z,100724.09
2023-04-27T18:00:18.065Z,100756.47
2023-04-27T18:02:48.148Z,100752.97
2023-04-27T18:05:17.535Z,100743.63
2023-04-27T18:07:46.571Z,100740.97
2023-04-27T18:10:15.003Z,100740.44
2023-04-27T18:12:42.716Z,100723.75
2023-04-27T18:15:11.391Z,100732.41
2023-04-27T18:17:39.208Z,100738.03
2023-04-27T18:20:10.160Z,100737.50
2023-04-27T18:22:41.122Z,100735.06
2023-04-27T18:25:10.670Z,100740.00
2023-04-27T18:27:38.631Z,100745.47
2023-04-27T18:30:08.764Z,100739.63
2023-04-27T18:32:36.650Z,100736.94
2023-04-27T18:35:05.621Z,100741.75
2023-04-27T18:37:33.529Z,100740.94
2023-04-27T18:40:02.763Z,100743.88
2023-04-27T18:42:30.656Z,100746.25
2023-04-27T18:45:00.773Z,100749.75
2023-04-27T18:47:28.885Z,100748.66
2023-04-27T18:49:56.599Z,100726.88
2023-04-27T18:52:24.366Z,100739.72
2023-04-27T18:54:52.081Z,100730.50
2023-04-27T18:57:21.132Z,100727.84
2023-04-27T18:59:48.937Z,100722.34
2023-04-27T19:02:16.718Z,100718.00
2023-04-27T19:04:52.879Z,100727.78
2023-04-27T19:07:29.684Z,100709.88
2023-04-27T19:09:57.414Z,100727.56
2023-04-27T19:12:26.626Z,100725.88
2023-04-27T19:14:54.434Z,100734.69
2023-04-27T19:17:22.426Z,100723.31
2023-04-27T19:19:50.393Z,100735.31
2023-04-27T19:22:18.091Z,100706.38
2023-04-27T19:24:45.875Z,100731.56
2023-04-27T19:27:13.962Z,100733.88
2023-04-27T19:29:54.210Z,100739.47
2023-04-27T19:32:25.204Z,100733.63
2023-04-27T19:34:53.289Z,100742.72
2023-04-27T19:37:21.664Z,100744.03
2023-04-27T19:39:49.521Z,100737.63
2023-04-27T19:42:17.445Z,100741.84
2023-04-27T19:44:45.189Z,100748.25
2023-04-27T19:47:14.370Z,100737.56
2023-04-27T19:49:42.115Z,100748.81
2023-04-27T19:52:09.896Z,100749.44
2023-04-27T19:54:38.322Z,100750.41
2023-04-27T19:57:06.271Z,100749.88
2023-04-27T19:59:34.089Z,100751.97
2023-04-27T20:02:01.942Z,100746.81
2023-04-27T20:04:31.279Z,100745.00
2023-04-27T20:07:01.058Z,100749.19
2023-04-27T20:09:28.828Z,100737.72
2023-04-27T20:11:56.625Z,100736.38
2023-04-27T20:14:24.884Z,100732.47
2023-04-27T20:16:52.781Z,100726.63
2023-04-27T20:19:22.640Z,100713.22
2023-04-27T20:21:51.816Z,100716.84
2023-04-27T20:24:19.546Z,100716.59
2023-04-27T20:26:47.450Z,100714.50
2023-04-27T20:29:15.182Z,100713.22
2023-04-27T20:31:42.991Z,100709.88
2023-04-27T20:34:11.241Z,100709.34
2023-04-27T20:36:38.995Z,100702.09
2023-04-27T20:39:08.980Z,100706.03
2023-04-27T20:41:38.514Z,100704.66
2023-04-27T20:44:06.319Z,100707.03
2023-04-27T20:46:34.134Z,100708.00
2023-04-27T20:49:01.875Z,100699.06
2023-04-27T20:51:29.768Z,100696.69
2023-04-27T20:53:57.625Z,100696.69
2023-04-27T20:56:26.939Z,100687.06
2023-04-27T20:58:54.646Z,100679.03
2023-04-27T21:01:22.402Z,100691.13
2023-04-27T21:03:50.326Z,100686.84
2023-04-27T21:06:18.186Z,100686.44
2023-04-27T21:08:45.986Z,100680.91
2023-04-27T21:11:15.097Z,100687.75
2023-04-27T21:13:45.713Z,100671.03
2023-04-27T21:16:13.557Z,100670.19
2023-04-27T21:18:41.289Z,100660.16
2023-04-27T21:21:09.046Z,100661.00
2023-04-27T21:23:36.727Z,100651.91
2023-04-27T21:26:04.570Z,100651.50
2023-04-27T21:28:32.530Z,100648.72
2023-04-27T21:31:01.720Z,100639.78
2023-04-27T21:33:31.659Z,100634.19
2023-04-27T21:35:59.582Z,100631.81
2023-04-27T21:38:27.355Z,100596.31
2023-04-27T21:40:55.076Z,100617.75
2023-04-27T21:43:22.895Z,100611.31
2023-04-27T21:45:50.700Z,100613.97
2023-04-27T21:48:19.775Z,100610.34
2023-04-27T21:50:47.694Z,100608.25
2023-04-27T21:53:15.810Z,100612.56
2023-04-27T21:55:43.685Z,100609.91
2023-04-27T21:58:11.595Z,100599.59
2023-04-27T22:00:39.649Z,100604.91
2023-04-27T22:03:07.856Z,100602.13
2023-04-27T22:05:37.649Z,100595.56
2023-04-27T22:08:05.501Z,100585.44
2023-04-27T22:10:33.227Z,100584.59
2023-04-27T22:13:08.200Z,100576.63
2023-04-27T22:15:45.853Z,100577.84
2023-04-27T22:18:14.318Z,100579.53
2023-04-27T22:20:44.370Z,100575.06
2023-04-27T22:23:12.114Z,100574.81
2023-04-27T22:25:42.533Z,100559.75
2023-04-27T22:28:10.330Z,100553.75
2023-04-27T22:30:40.013Z,100571.72
2023-04-27T22:33:08.073Z,100571.72
2023-04-27T22:35:36.985Z,100561.66
2023-04-27T22:38:06.996Z,100564.44
2023-04-27T22:40:34.849Z,100548.31
2023-04-27T22:43:02.599Z,100551.34
2023-04-27T22:45:30.534Z,100553.84
2023-04-27T22:47:58.614Z,100550.38
2023-04-27T22:50:26.652Z,100545.22
2023-04-27T22:52:54.403Z,100548.81
2023-04-27T22:55:23.655Z,100546.31
2023-04-27T22:57:53.626Z,100543.50
2023-04-27T23:00:21.743Z,100544.06
2023-04-27T23:02:49.686Z,100547.91
2023-04-27T23:05:17.623Z,100550.41
2023-04-27T23:07:46.316Z,100546.78
2023-04-27T23:10:15.224Z,100542.88
2023-04-27T23:12:44.379Z,100544.84
2023-04-27T23:15:12.660Z,100535.91
2023-04-27T23:17:40.532Z,100518.06
2023-04-27T23:20:20.376Z,100527.25
2023-04-27T23:22:54.917Z,100518.59
2023-04-27T23:25:22.707Z,100529.31
2023-04-27T23:27:52.698Z,100512.31
2023-04-27T23:30:21.380Z,100519.84
2023-04-27T23:32:49.254Z,100509.09
2023-04-27T23:35:17.150Z,100514.38
2023-04-27T23:37:45.022Z,100508.78
2023-04-27T23:40:14.058Z,100518.25
2023-04-27T23:42:41.945Z,100502.34
2023-04-27T23:45:12.267Z,100498.16
2023-04-27T23:47:40.116Z,100495.00
2023-04-27T23:50:09.030Z,100496.97
2023-04-27T23:52:37.091Z,100487.19
2023-04-27T23:55:05.518Z,100491.81
2023-04-27T23:57:33.303Z,100494.31
